Time;durP1;ratioP1;P1;durP2;ratioP2;P2;SDS_P1;SDS_P2;PMS_P1;PMS_P2;Temp;Humidity;BMP_temperature;BMP_pressure;BME280_temperature;BME280_humidity;BME280_pressure;Samples;Min_cycle;Max_cycle;Signal;HPM_P1;HPM_P2
2024/03/25 00:01:12;;;;;;;6.90;4.33;;;24.30;67.30;;;;;;5069744;28;20202;-73
2024/03/25 00:03:40;;;;;;;11.37;4.63;;;24.40;66.70;;;;;;5077620;28;20270;-75
2024/03/25 00:06:07;;;;;;;5.87;4.53;;;24.50;67.00;;;;;;5081860;28;20175;-71
2024/03/25 00:08:34;;;;;;;6.10;4.13;;;24.60;67.80;;;;;;5076798;28;20188;-73
2024/03/25 00:11:02;;;;;;;9.57;4.23;;;24.80;66.80;;;;;;5077832;28;20209;-71
2024/03/25 00:13:29;;;;;;;8.77;4.97;;;25.00;66.20;;;;;;5076241;28;20187;-71
2024/03/25 00:15:56;;;;;;;5.60;4.20;;;24.90;64.90;;;;;;5076429;28;20187;-70
2024/03/25 00:18:24;;;;;;;9.83;4.20;;;25.00;64.80;;;;;;5079925;28;20332;-74
2024/03/25 00:20:51;;;;;;;7.40;3.80;;;24.90;64.40;;;;;;5078073;28;20605;-70
2024/03/25 00:23:19;;;;;;;6.43;4.00;;;25.00;63.90;;;;;;5062258;28;20174;-74
2024/03/25 00:25:46;;;;;;;10.53;4.43;;;25.00;62.90;;;;;;5074501;28;20194;-70
2024/03/25 00:28:14;;;;;;;6.73;3.93;;;25.00;62.90;;;;;;5075458;28;20167;-71
2024/03/25 00:30:41;;;;;;;8.13;4.67;;;24.90;62.00;;;;;;5093449;28;20229;-76
2024/03/25 00:33:09;;;;;;;10.17;4.70;;;25.00;63.40;;;;;;5079805;28;20179;-73
2024/03/25 00:35:37;;;;;;;9.67;4.30;;;25.20;63.20;;;;;;5074267;28;20622;-70
2024/03/25 00:38:04;;;;;;;8.73;4.77;;;25.30;62.90;;;;;;5070682;28;20746;-70
2024/03/25 00:40:32;;;;;;;9.40;4.27;;;25.40;62.80;;;;;;5073996;28;20301;-72
2024/03/25 00:42:59;;;;;;;9.00;4.53;;;25.60;60.50;;;;;;5074460;28;20641;-74
2024/03/25 00:45:30;;;;;;;11.20;4.87;;;25.50;61.00;;;;;;5076038;28;20667;-71
2024/03/25 00:48:00;;;;;;;11.97;4.80;;;25.70;60.30;;;;;;5080822;28;20223;-72
2024/03/25 00:50:27;;;;;;;6.43;3.67;;;25.80;59.60;;;;;;5077005;28;20288;-78
2024/03/25 00:52:55;;;;;;;7.77;3.30;;;25.90;54.80;;;;;;5082319;28;20182;-72
2024/03/25 00:55:22;;;;;;;6.57;3.90;;;26.20;55.20;;;;;;5078570;28;20263;-69
2024/03/25 00:57:49;;;;;;;6.00;3.27;;;26.30;53.70;;;;;;5083720;28;20696;-72
2024/03/25 01:00:17;;;;;;;5.83;2.80;;;26.40;51.50;;;;;;5074801;28;20217;-70
2024/03/25 01:02:47;;;;;;;13.40;3.37;;;26.60;51.60;;;;;;5076427;28;20224;-74
2024/03/25 01:05:14;;;;;;;9.57;3.10;;;26.80;50.80;;;;;;5074530;28;20244;-72
2024/03/25 01:07:42;;;;;;;10.80;3.87;;;27.00;50.70;;;;;;5079718;28;20225;-73
2024/03/25 01:10:10;;;;;;;11.93;3.73;;;27.10;50.90;;;;;;5079435;28;20211;-73
2024/03/25 01:12:37;;;;;;;7.30;3.03;;;27.20;50.90;;;;;;5078390;28;20546;-71
2024/03/25 01:15:05;;;;;;;8.00;2.80;;;27.20;50.00;;;;;;5075905;28;20566;-73
2024/03/25 01:17:32;;;;;;;4.73;2.70;;;27.30;47.60;;;;;;5077588;28;20188;-75
2024/03/25 01:20:00;;;;;;;7.53;2.53;;;27.20;46.60;;;;;;5072150;28;20183;-73
2024/03/25 01:22:27;;;;;;;5.87;2.70;;;27.20;47.00;;;;;;5077817;28;20199;-70
2024/03/25 01:24:54;;;;;;;6.50;2.60;;;27.40;47.50;;;;;;5081702;28;20194;-70
2024/03/25 01:27:25;;;;;;;9.47;2.77;;;27.50;48.40;;;;;;5075834;28;20178;-75
2024/03/25 01:29:52;;;;;;;7.33;2.30;;;27.70;48.10;;;;;;5076702;28;20237;-71
2024/03/25 01:32:19;;;;;;;9.37;2.67;;;27.90;47.80;;;;;;5078691;28;20240;-72
2024/03/25 01:34:47;;;;;;;5.37;2.47;;;28.00;45.80;;;;;;5081332;28;20178;-71
2024/03/25 01:37:14;;;;;;;5.60;2.33;;;28.10;46.40;;;;;;5079643;28;20253;-71
2024/03/25 01:39:41;;;;;;;5.37;2.00;;;28.00;45.80;;;;;;5073128;28;20227;-69
2024/03/25 01:42:09;;;;;;;7.60;1.93;;;28.30;43.50;;;;;;5076292;28;20179;-72
2024/03/25 01:44:37;;;;;;;4.57;2.00;;;28.40;42.90;;;;;;5079249;28;20202;-70
2024/03/25 01:47:04;;;;;;;4.03;1.90;;;28.50;42.90;;;;;;5074819;28;20210;-74
2024/03/25 01:49:32;;;;;;;4.23;1.57;;;28.60;42.00;;;;;;5075878;28;20666;-69
2024/03/25 01:52:00;;;;;;;6.20;1.77;;;28.60;41.80;;;;;;5074489;28;20175;-68
2024/03/25 01:54:27;;;;;;;3.40;1.80;;;28.80;40.20;;;;;;5076426;28;20243;-70
2024/03/25 01:56:55;;;;;;;3.80;1.43;;;28.90;39.60;;;;;;5072866;28;20178;-69
2024/03/25 01:59:23;;;;;;;5.03;1.90;;;28.90;40.90;;;;;;5079790;28;20584;-72
2024/03/25 02:01:51;;;;;;;4.27;1.87;;;29.30;39.80;;;;;;5080898;28;20171;-71
2024/03/25 02:04:18;;;;;;;8.57;2.20;;;29.40;38.10;;;;;;5076845;28;20178;-68
2024/03/25 02:06:46;;;;;;;3.73;1.40;;;29.40;36.30;;;;;;5077604;28;20178;-71
2024/03/25 02:09:14;;;;;;;3.40;1.63;;;29.60;35.60;;;;;;5075988;28;20291;-68
2024/03/25 02:11:42;;;;;;;4.60;1.30;;;29.80;33.50;;;;;;5091854;28;20182;-68
2024/03/25 02:14:10;;;;;;;3.37;1.37;;;29.70;34.60;;;;;;5074101;28;20190;-68
2024/03/25 02:16:37;;;;;;;6.40;1.33;;;29.90;33.50;;;;;;5073529;28;20270;-67
2024/03/25 02:19:04;;;;;;;7.27;1.67;;;30.10;33.70;;;;;;5075598;28;20183;-73
2024/03/25 02:21:32;;;;;;;1.73;1.30;;;30.30;34.20;;;;;;5078505;28;20187;-73
2024/03/25 02:24:03;;;;;;;2.97;1.33;;;30.40;33.80;;;;;;5078610;28;20538;-69
2024/03/25 02:26:31;;;;;;;3.58;1.30;;;30.70;33.10;;;;;;5080350;28;20205;-74
2024/03/25 02:28:58;;;;;;;7.80;1.17;;;30.60;31.90;;;;;;5081245;28;20199;-72
2024/03/25 02:31:25;;;;;;;2.13;1.30;;;30.30;31.50;;;;;;5082926;28;20191;-74
2024/03/25 02:33:53;;;;;;;2.40;1.20;;;30.10;31.30;;;;;;5083329;28;20268;-75
2024/03/25 02:36:20;;;;;;;5.57;1.50;;;30.10;31.40;;;;;;5079499;28;20931;-80
2024/03/25 02:38:48;;;;;;;2.45;1.48;;;30.00;31.70;;;;;;5078758;28;20225;-71
2024/03/25 02:41:15;;;;;;;1.87;1.23;;;30.20;32.00;;;;;;5078827;28;20221;-70
2024/03/25 02:43:43;;;;;;;3.83;1.50;;;30.30;30.20;;;;;;5073734;28;20790;-67
2024/03/25 02:46:10;;;;;;;1.40;1.10;;;30.60;28.80;;;;;;5082904;28;20190;-72
2024/03/25 02:48:37;;;;;;;2.20;1.20;;;30.90;28.20;;;;;;5098690;28;20540;-71
2024/03/25 02:51:05;;;;;;;4.68;0.90;;;30.90;28.00;;;;;;5082387;28;20661;-71
2024/03/25 02:53:33;;;;;;;3.00;0.90;;;30.90;23.00;;;;;;5081138;28;20182;-72
2024/03/25 02:56:00;;;;;;;1.65;0.95;;;31.30;23.60;;;;;;5080310;28;20188;-70
2024/03/25 02:58:27;;;;;;;2.60;1.10;;;31.80;23.40;;;;;;5083756;28;20266;-70
2024/03/25 03:00:54;;;;;;;3.30;1.50;;;32.00;23.20;;;;;;5074760;28;20179;-75
2024/03/25 03:03:22;;;;;;;2.10;0.98;;;32.00;25.70;;;;;;5079733;28;20286;-70
2024/03/25 03:05:51;;;;;;;4.88;1.42;;;32.10;24.50;;;;;;5075252;28;20195;-69
2024/03/25 03:08:18;;;;;;;2.63;1.20;;;31.70;23.70;;;;;;5064593;28;20202;-70
2024/03/25 03:10:45;;;;;;;4.85;1.20;;;31.90;23.90;;;;;;5074707;28;20214;-69
2024/03/25 03:13:13;;;;;;;2.13;1.05;;;32.10;22.40;;;;;;5075026;28;20297;-69
2024/03/25 03:15:44;;;;;;;1.20;1.00;;;32.40;22.10;;;;;;5074736;28;20254;-69
2024/03/25 03:18:12;;;;;;;3.40;1.00;;;32.20;22.30;;;;;;5084369;28;20171;-69
2024/03/25 03:20:39;;;;;;;2.17;1.00;;;32.30;22.80;;;;;;5076319;28;20190;-68
2024/03/25 03:23:07;;;;;;;2.50;0.90;;;32.50;22.70;;;;;;5082877;28;20179;-69
2024/03/25 03:25:35;;;;;;;3.38;0.90;;;32.90;22.20;;;;;;5076917;28;20182;-69
2024/03/25 03:28:02;;;;;;;5.50;1.25;;;32.90;21.80;;;;;;5077043;28;20635;-69
2024/03/25 03:30:29;;;;;;;1.45;0.80;;;33.10;22.10;;;;;;5074517;28;20257;-69
2024/03/25 03:32:56;;;;;;;2.47;1.00;;;32.80;22.20;;;;;;5082433;28;20175;-69
2024/03/25 03:35:24;;;;;;;1.85;1.10;;;33.30;22.10;;;;;;5077135;28;20190;-71
2024/03/25 03:37:52;;;;;;;3.95;1.20;;;33.40;21.50;;;;;;5081683;28;20219;-70
2024/03/25 03:40:19;;;;;;;4.47;1.35;;;33.70;21.20;;;;;;5082668;28;20194;-67
2024/03/25 03:42:46;;;;;;;1.73;0.90;;;34.10;20.60;;;;;;5086119;28;20563;-72
2024/03/25 03:45:13;;;;;;;1.50;0.70;;;33.50;21.20;;;;;;5080891;28;20633;-68
2024/03/25 03:47:41;;;;;;;2.28;1.10;;;33.70;19.40;;;;;;5084016;28;20213;-70
2024/03/25 03:50:09;;;;;;;0.88;0.80;;;33.90;18.60;;;;;;5083061;28;20267;-71
2024/03/25 03:52:36;;;;;;;1.13;0.85;;;33.90;19.10;;;;;;5084627;28;20190;-68
2024/03/25 03:55:04;;;;;;;4.20;0.95;;;33.50;20.10;;;;;;5067115;28;20531;-69
2024/03/25 03:57:32;;;;;;;3.55;0.90;;;33.60;19.90;;;;;;5085620;28;20183;-69
2024/03/25 03:59:59;;;;;;;6.15;1.55;;;34.10;20.30;;;;;;5085981;28;20175;-69
2024/03/25 04:02:29;;;;;;;1.55;0.95;;;34.70;19.90;;;;;;5082332;28;20253;-70
2024/03/25 04:04:56;;;;;;;4.47;1.20;;;34.60;19.50;;;;;;5083440;28;20648;-67
2024/03/25 04:07:26;;;;;;;3.35;0.95;;;34.30;20.00;;;;;;5082153;28;20194;-70
2024/03/25 04:09:59;;;;;;;1.75;1.10;;;34.30;20.10;;;;;;5093646;28;20309;-68
2024/03/25 04:12:26;;;;;;;2.22;1.20;;;35.10;20.00;;;;;;5081526;28;20186;-75
2024/03/25 04:14:57;;;;;;;2.25;1.00;;;35.20;18.50;;;;;;5085912;28;20485;-72
2024/03/25 04:17:24;;;;;;;2.13;1.17;;;35.30;18.30;;;;;;5084822;28;20191;-70
2024/03/25 04:19:52;;;;;;;6.20;0.90;;;34.80;19.10;;;;;;5082562;28;20193;-68
2024/03/25 04:22:19;;;;;;;2.92;0.90;;;34.80;18.60;;;;;;5083621;28;20189;-68
2024/03/25 04:24:47;;;;;;;5.72;1.13;;;34.40;18.90;;;;;;5081542;28;20211;-68
2024/03/25 04:27:14;;;;;;;3.70;1.00;;;35.20;18.10;;;;;;5086490;28;20586;-69
2024/03/25 04:29:41;;;;;;;1.15;0.82;;;35.70;18.40;;;;;;5082627;28;20214;-73
2024/03/25 04:32:08;;;;;;;1.85;0.75;;;36.30;18.20;;;;;;5081828;28;20178;-71
2024/03/25 04:34:36;;;;;;;1.55;0.85;;;36.80;18.50;;;;;;5085797;28;20637;-68
2024/03/25 04:37:04;;;;;;;5.47;1.75;;;36.10;18.90;;;;;;5085631;28;20648;-73
2024/03/25 04:39:32;;;;;;;3.47;2.13;;;36.10;28.30;;;;;;5079262;28;20305;-69
2024/03/25 04:41:59;;;;;;;5.68;2.33;;;35.50;33.00;;;;;;5086282;28;20262;-69
2024/03/25 04:44:27;;;;;;;4.45;2.10;;;34.30;35.40;;;;;;5082086;28;20186;-68
2024/03/25 04:46:55;;;;;;;6.22;2.38;;;33.20;39.30;;;;;;5088139;28;20266;-73
2024/03/25 04:49:22;;;;;;;4.50;1.95;;;33.00;38.40;;;;;;5086179;28;21383;-71
2024/03/25 04:51:51;;;;;;;5.30;1.88;;;33.40;38.10;;;;;;5089103;28;20189;-69
2024/03/25 04:54:18;;;;;;;11.13;2.30;;;32.90;40.10;;;;;;5080197;28;20210;-73
2024/03/25 04:56:47;;;;;;;6.75;2.45;;;33.40;38.80;;;;;;5087230;28;20240;-73
2024/03/25 04:59:14;;;;;;;13.30;2.38;;;33.30;39.20;;;;;;5082821;28;20194;-73
2024/03/25 05:01:42;;;;;;;5.85;2.60;;;33.10;39.40;;;;;;5079178;28;20182;-70
2024/03/25 05:04:09;;;;;;;6.63;2.63;;;32.40;39.40;;;;;;5077278;28;20266;-68
2024/03/25 05:06:36;;;;;;;4.20;2.17;;;33.00;39.90;;;;;;5087236;28;20178;-68
2024/03/25 05:09:05;;;;;;;4.95;2.22;;;32.80;40.30;;;;;;5075225;28;20314;-69
2024/03/25 05:11:33;;;;;;;5.68;2.10;;;33.00;39.90;;;;;;5081938;28;20204;-70
2024/03/25 05:14:00;;;;;;;6.15;1.90;;;32.40;41.10;;;;;;5078634;28;20187;-73
2024/03/25 05:16:28;;;;;;;3.88;2.08;;;31.90;41.50;;;;;;5086190;28;20177;-73
2024/03/25 05:18:55;;;;;;;5.00;2.03;;;31.10;42.90;;;;;;5086194;28;20175;-69
2024/03/25 05:21:22;;;;;;;3.00;2.10;;;32.00;41.60;;;;;;5079186;28;20178;-74
2024/03/25 05:23:50;;;;;;;5.28;1.80;;;32.50;40.40;;;;;;5083520;28;20597;-71
2024/03/25 05:26:17;;;;;;;2.88;2.00;;;33.20;39.30;;;;;;5078408;28;20179;-71
2024/03/25 05:28:44;;;;;;;5.03;2.20;;;33.10;40.40;;;;;;5084405;28;20603;-69
2024/03/25 05:31:12;;;;;;;12.93;2.60;;;33.40;39.50;;;;;;5096711;28;20190;-70
2024/03/25 05:33:39;;;;;;;6.68;2.50;;;32.80;41.10;;;;;;5084192;28;20170;-71
2024/03/25 05:36:07;;;;;;;9.40;2.13;;;32.40;43.00;;;;;;5078800;28;20218;-71
2024/03/25 05:38:34;;;;;;;6.65;2.28;;;32.00;44.40;;;;;;5086146;28;20218;-69
2024/03/25 05:41:01;;;;;;;7.40;2.63;;;31.80;45.10;;;;;;5076365;28;20590;-72
2024/03/25 05:43:29;;;;;;;6.55;2.28;;;31.60;46.00;;;;;;5079419;28;20402;-69
2024/03/25 05:45:57;;;;;;;7.53;2.38;;;32.30;44.70;;;;;;5079065;28;20206;-70
2024/03/25 05:48:27;;;;;;;4.57;1.88;;;31.60;45.50;;;;;;5086048;28;20170;-76
2024/03/25 05:51:10;;;;;;;4.68;2.10;;;30.90;46.90;;;;;;5076248;28;20207;-71
2024/03/25 05:53:38;;;;;;;11.63;2.60;;;31.40;45.40;;;;;;5090327;28;20647;-70
2024/03/25 05:56:05;;;;;;;4.55;2.00;;;31.80;45.30;;;;;;5081710;28;20179;-75
2024/03/25 05:58:32;;;;;;;7.80;2.50;;;32.80;44.10;;;;;;5083984;28;20190;-74
2024/03/25 06:01:01;;;;;;;4.03;1.73;;;32.90;42.30;;;;;;5082929;28;20190;-73
2024/03/25 06:03:28;;;;;;;5.53;2.17;;;32.40;43.80;;;;;;5107419;28;20224;-75
2024/03/25 06:05:55;;;;;;;6.10;2.28;;;32.50;44.50;;;;;;5103814;28;20202;-70
2024/03/25 06:08:26;;;;;;;3.88;1.88;;;32.60;43.60;;;;;;5080981;28;20194;-70
2024/03/25 06:11:00;;;;;;;4.38;2.10;;;32.50;44.00;;;;;;5071115;28;20226;-70
2024/03/25 06:13:28;;;;;;;3.58;1.65;;;32.10;44.10;;;;;;5080889;28;20204;-70
2024/03/25 06:15:56;;;;;;;6.95;2.20;;;32.50;44.10;;;;;;5082439;28;20198;-75
2024/03/25 06:18:24;;;;;;;4.78;1.92;;;32.30;43.70;;;;;;5082324;28;20186;-73
2024/03/25 06:20:51;;;;;;;6.00;2.50;;;32.30;44.10;;;;;;5077542;28;20311;-71
2024/03/25 06:23:26;;;;;;;6.38;2.75;;;32.30;44.20;;;;;;5079883;28;20274;-73
2024/03/25 06:25:54;;;;;;;7.53;1.98;;;32.20;44.70;;;;;;5080037;28;20194;-74
2024/03/25 06:28:22;;;;;;;5.80;2.20;;;32.70;43.90;;;;;;5080889;28;20211;-72
2024/03/25 06:36:22;;;;;;;5.53;2.03;;;32.40;43.90;;;;;;5077828;28;20198;-76
2024/03/25 06:38:49;;;;;;;6.13;2.17;;;31.80;45.90;;;;;;5077883;28;20218;-70
2024/03/25 06:41:17;;;;;;;5.63;1.90;;;31.50;47.10;;;;;;5076722;28;20209;-71
2024/03/25 06:43:45;;;;;;;7.70;2.25;;;31.80;46.50;;;;;;5076333;28;20682;-72
2024/03/25 06:46:13;;;;;;;6.70;2.08;;;32.30;45.60;;;;;;5078077;28;20191;-70
2024/03/25 06:48:40;;;;;;;6.40;2.20;;;32.80;44.20;;;;;;5076219;28;20179;-69
2024/03/25 06:51:07;;;;;;;7.28;2.08;;;32.40;45.30;;;;;;5079509;28;20600;-70
2024/03/25 06:53:35;;;;;;;5.95;1.90;;;32.20;45.40;;;;;;5077715;28;20262;-71
2024/03/25 06:56:02;;;;;;;6.20;2.20;;;31.90;44.10;;;;;;5082140;28;20190;-70
2024/03/25 06:58:30;;;;;;;5.55;2.25;;;31.00;45.90;;;;;;5076228;28;20182;-69
2024/03/25 07:01:05;;;;;;;8.73;3.30;;;30.50;46.70;;;;;;5073182;28;20543;-74
2024/03/25 07:03:33;;;;;;;6.07;1.83;;;30.80;46.10;;;;;;5070164;28;20178;-72
2024/03/25 07:06:03;;;;;;;6.65;1.75;;;30.80;47.50;;;;;;5075671;28;20542;-69
2024/03/25 07:08:31;;;;;;;3.33;1.60;;;31.10;46.50;;;;;;5071621;28;20262;-71
2024/03/25 07:10:59;;;;;;;4.35;1.75;;;30.80;48.40;;;;;;5070542;28;20719;-71
2024/03/25 07:13:26;;;;;;;7.38;1.80;;;30.50;48.90;;;;;;5073504;28;20210;-70
2024/03/25 07:15:55;;;;;;;3.95;1.67;;;30.70;48.90;;;;;;5069759;28;20195;-72
2024/03/25 07:18:23;;;;;;;5.38;1.80;;;30.60;49.20;;;;;;5067891;28;20183;-71
2024/03/25 07:20:50;;;;;;;3.83;1.58;;;30.70;48.40;;;;;;5076247;28;20183;-70
2024/03/25 07:23:18;;;;;;;3.95;1.80;;;30.80;48.90;;;;;;5074345;28;20183;-75
2024/03/25 07:25:45;;;;;;;4.57;1.65;;;30.90;47.70;;;;;;5071537;28;20192;-71
2024/03/25 07:28:12;;;;;;;7.55;1.92;;;30.60;48.10;;;;;;5073558;28;20214;-70
2024/03/25 07:30:39;;;;;;;4.80;2.00;;;30.00;49.30;;;;;;5073731;28;20203;-72
2024/03/25 07:33:07;;;;;;;7.75;1.90;;;29.00;51.90;;;;;;5075104;28;20263;-72
2024/03/25 07:35:35;;;;;;;11.40;2.20;;;28.00;54.40;;;;;;5073580;28;20183;-73
2024/03/25 07:38:03;;;;;;;5.20;2.30;;;27.30;56.70;;;;;;5071093;28;20222;-73
2024/03/25 07:40:30;;;;;;;3.57;1.80;;;27.00;57.40;;;;;;5072556;28;20183;-72
2024/03/25 07:42:58;;;;;;;6.63;2.10;;;26.80;57.50;;;;;;5071262;28;20211;-74
2024/03/25 07:45:25;;;;;;;3.83;2.10;;;26.70;58.10;;;;;;5069413;28;20190;-72
2024/03/25 07:47:53;;;;;;;7.40;2.10;;;26.50;58.50;;;;;;5071120;28;20190;-73
2024/03/25 07:50:21;;;;;;;5.80;2.20;;;26.40;58.90;;;;;;5079434;28;20215;-73
2024/03/25 07:52:57;;;;;;;8.80;2.53;;;26.10;60.00;;;;;;5075409;28;20187;-73
2024/03/25 07:55:25;;;;;;;5.17;2.57;;;26.00;60.50;;;;;;5070176;28;20171;-72
2024/03/25 07:57:53;;;;;;;4.77;2.17;;;25.80;61.40;;;;;;5072972;28;20186;-71
2024/03/25 08:00:20;;;;;;;5.47;2.77;;;25.60;62.00;;;;;;5068648;28;20346;-74
2024/03/25 08:02:48;;;;;;;6.17;2.37;;;25.40;62.40;;;;;;5074024;28;20179;-73
2024/03/25 08:05:15;;;;;;;5.77;2.50;;;25.30;62.80;;;;;;5067756;28;20344;-73
2024/03/25 08:07:43;;;;;;;7.63;2.23;;;25.10;63.20;;;;;;5070686;28;20188;-76
2024/03/25 08:10:10;;;;;;;4.57;2.63;;;25.10;63.20;;;;;;5074854;28;20227;-72
2024/03/25 08:12:38;;;;;;;6.03;2.57;;;25.00;62.70;;;;;;5074952;28;20198;-74
2024/03/25 08:15:05;;;;;;;5.80;2.20;;;24.90;62.80;;;;;;5076680;28;20591;-73
2024/03/25 08:17:33;;;;;;;10.80;2.60;;;24.80;62.90;;;;;;5069817;28;20296;-73
2024/03/25 08:20:00;;;;;;;7.10;2.77;;;24.80;63.20;;;;;;5077049;28;20646;-74
2024/03/25 08:22:30;;;;;;;8.93;2.60;;;24.80;63.60;;;;;;5070706;28;20697;-71
2024/03/25 08:24:57;;;;;;;7.07;2.90;;;24.70;64.10;;;;;;5068300;28;20198;-73
2024/03/25 08:27:25;;;;;;;5.03;2.40;;;24.60;65.00;;;;;;5069211;28;20531;-70
2024/03/25 08:29:54;;;;;;;5.37;2.67;;;24.50;65.60;;;;;;5071626;28;20226;-71
2024/03/25 08:32:21;;;;;;;8.83;2.43;;;24.50;66.10;;;;;;5078713;28;20183;-71
2024/03/25 08:34:49;;;;;;;6.73;2.73;;;24.50;66.90;;;;;;5068946;28;20360;-71
2024/03/25 08:37:16;;;;;;;8.90;2.50;;;24.40;67.30;;;;;;5071982;28;20211;-71
2024/03/25 08:39:43;;;;;;;6.50;2.77;;;24.30;68.00;;;;;;5067374;28;20234;-71
2024/03/25 08:42:10;;;;;;;8.57;3.10;;;24.30;68.20;;;;;;5072673;28;20240;-69
2024/03/25 08:44:41;;;;;;;7.50;2.97;;;24.30;68.30;;;;;;5071554;28;20194;-73
2024/03/25 08:47:08;;;;;;;7.27;2.40;;;24.30;67.90;;;;;;5069181;28;20175;-68
2024/03/25 08:49:35;;;;;;;5.53;2.67;;;24.30;67.70;;;;;;5070407;28;20211;-69
2024/03/25 08:52:02;;;;;;;8.40;3.43;;;24.30;67.20;;;;;;5072320;28;20324;-69
2024/03/25 08:54:30;;;;;;;10.43;3.70;;;24.30;67.10;;;;;;5077921;28;20191;-69
2024/03/25 08:56:57;;;;;;;10.60;3.53;;;24.30;67.40;;;;;;5071514;28;20184;-74
2024/03/25 08:59:24;;;;;;;8.30;3.67;;;24.30;67.60;;;;;;5067734;28;20183;-74
2024/03/25 09:01:52;;;;;;;7.97;3.30;;;24.20;68.10;;;;;;5071934;28;20201;-73
2024/03/25 09:04:19;;;;;;;6.00;2.77;;;24.20;68.90;;;;;;5072330;28;20195;-72
2024/03/25 09:06:47;;;;;;;7.33;3.10;;;24.20;69.20;;;;;;5078733;28;20194;-69
2024/03/25 09:12:00;;;;;;;7.13;3.33;;;24.10;70.50;;;;;;5076518;28;20714;-72
2024/03/25 09:14:27;;;;;;;9.33;2.73;;;24.10;71.30;;;;;;5078119;28;20183;-74
2024/03/25 09:16:55;;;;;;;10.80;3.00;;;23.90;72.10;;;;;;5064336;28;20283;-74
2024/03/25 09:19:22;;;;;;;6.67;2.97;;;23.80;72.50;;;;;;5083253;28;21332;-72
2024/03/25 09:21:53;;;;;;;8.83;3.20;;;23.70;73.10;;;;;;5073120;28;20175;-72
2024/03/25 09:24:20;;;;;;;13.43;3.23;;;23.60;73.20;;;;;;5060839;28;20185;-72
2024/03/25 09:26:51;;;;;;;9.93;3.10;;;23.60;73.80;;;;;;5069442;28;20187;-71
2024/03/25 09:29:21;;;;;;;10.07;3.80;;;23.60;74.60;;;;;;5079750;28;20307;-71
2024/03/25 09:31:49;;;;;;;9.50;3.00;;;23.60;74.80;;;;;;5081966;28;20176;-70
2024/03/25 09:34:16;;;;;;;8.67;2.87;;;23.50;74.90;;;;;;5083954;28;20240;-70
2024/03/25 09:36:43;;;;;;;8.17;2.50;;;23.50;75.10;;;;;;5081994;28;20187;-71
2024/03/25 09:39:11;;;;;;;7.17;2.77;;;23.40;75.30;;;;;;5081640;28;20249;-72
2024/03/25 09:41:43;;;;;;;5.70;2.23;;;23.40;75.70;;;;;;5083692;28;20187;-72
2024/03/25 09:44:11;;;;;;;9.60;2.33;;;23.30;76.00;;;;;;5085744;28;20174;-71
2024/03/25 09:46:38;;;;;;;6.67;2.57;;;23.30;76.20;;;;;;5083572;28;20266;-74
2024/03/25 09:49:06;;;;;;;9.97;2.20;;;23.30;76.50;;;;;;5085534;28;20245;-70
2024/03/25 09:51:33;;;;;;;7.83;2.33;;;23.30;76.60;;;;;;5074364;28;20190;-69
2024/03/25 09:54:01;;;;;;;12.50;2.50;;;23.30;76.80;;;;;;5083674;28;20186;-72
2024/03/25 09:56:28;;;;;;;8.13;2.40;;;23.20;77.00;;;;;;5083207;28;20231;-71
2024/03/25 09:58:58;;;;;;;7.67;2.47;;;23.20;77.10;;;;;;5077129;28;20548;-68
2024/03/25 10:01:29;;;;;;;8.97;2.63;;;23.20;77.10;;;;;;5081274;28;20174;-72
2024/03/25 10:03:57;;;;;;;8.93;2.50;;;23.20;77.20;;;;;;5077024;28;20175;-71
2024/03/25 10:06:24;;;;;;;7.07;2.33;;;23.10;77.00;;;;;;5086556;28;20183;-69
2024/03/25 10:08:57;;;;;;;5.07;2.43;;;23.10;77.10;;;;;;5078626;28;20270;-71
2024/03/25 10:11:28;;;;;;;6.50;2.30;;;23.10;77.20;;;;;;5068020;28;20218;-74
2024/03/25 10:13:55;;;;;;;7.13;2.40;;;23.00;77.10;;;;;;5079533;28;20244;-71
2024/03/25 10:16:23;;;;;;;5.53;2.23;;;23.00;77.00;;;;;;5087118;28;20834;-74
2024/03/25 10:18:51;;;;;;;8.10;2.17;;;23.00;77.10;;;;;;5084718;28;20182;-75
2024/03/25 10:21:21;;;;;;;6.00;2.40;;;22.90;77.10;;;;;;5078979;28;20202;-73
2024/03/25 10:23:51;;;;;;;8.13;2.50;;;22.90;77.30;;;;;;5085847;28;20269;-71
2024/03/25 10:26:31;;;;;;;7.53;2.10;;;22.80;77.10;;;;;;5081218;28;20206;-71
2024/03/25 10:29:10;;;;;;;4.50;2.07;;;22.80;77.20;;;;;;5077784;28;20519;-73
2024/03/25 10:31:38;;;;;;;5.73;2.30;;;22.80;77.50;;;;;;5087762;28;20742;-72
2024/03/25 10:34:08;;;;;;;7.97;3.07;;;22.80;77.50;;;;;;5088378;28;20189;-72
2024/03/25 10:36:36;;;;;;;8.07;2.53;;;22.80;77.60;;;;;;5080338;28;20640;-73
2024/03/25 10:39:07;;;;;;;11.03;2.47;;;22.80;77.70;;;;;;5086319;28;20582;-73
2024/03/25 10:41:37;;;;;;;6.50;2.37;;;22.80;77.60;;;;;;5087067;28;20231;-72
2024/03/25 10:44:08;;;;;;;8.60;2.10;;;22.80;77.70;;;;;;5089743;28;20174;-72
2024/03/25 10:46:36;;;;;;;6.97;2.17;;;22.70;77.80;;;;;;5089048;28;20174;-73
2024/03/25 10:49:23;;;;;;;4.87;1.80;;;22.70;77.80;;;;;;5085074;28;20625;-71
2024/03/25 10:51:51;;;;;;;9.07;2.23;;;22.70;77.80;;;;;;5075766;28;20187;-71
2024/03/25 10:54:19;;;;;;;11.73;2.43;;;22.60;77.60;;;;;;5063365;28;20178;-70
2024/03/25 10:56:51;;;;;;;7.97;2.23;;;22.60;77.80;;;;;;5089023;28;20179;-70
2024/03/25 10:59:21;;;;;;;6.03;2.10;;;22.60;78.00;;;;;;5087498;28;20175;-75
2024/03/25 11:01:49;;;;;;;6.63;2.10;;;22.70;78.00;;;;;;5078033;28;20668;-73
2024/03/25 11:04:16;;;;;;;7.00;2.30;;;22.60;78.20;;;;;;5065531;28;20187;-71
2024/03/25 11:06:43;;;;;;;9.20;2.33;;;22.60;78.50;;;;;;5082231;28;20271;-73
2024/03/25 11:09:13;;;;;;;6.70;2.07;;;22.60;78.50;;;;;;5083793;28;20278;-75
2024/03/25 11:11:41;;;;;;;6.13;2.13;;;22.60;78.60;;;;;;5084484;28;20258;-71
2024/03/25 11:14:17;;;;;;;7.80;2.17;;;22.60;78.70;;;;;;5090367;28;20175;-70
2024/03/25 11:16:44;;;;;;;12.67;2.30;;;22.60;79.00;;;;;;5089422;28;20194;-69
2024/03/25 11:19:12;;;;;;;8.87;2.80;;;22.60;79.30;;;;;;5091330;28;20644;-70
2024/03/25 11:21:39;;;;;;;9.27;2.20;;;22.50;79.50;;;;;;5075967;28;20214;-70
2024/03/25 11:24:09;;;;;;;10.53;2.47;;;22.50;79.80;;;;;;5079406;28;20198;-71
2024/03/25 11:26:43;;;;;;;7.17;2.40;;;22.50;80.20;;;;;;5083877;28;20648;-75
2024/03/25 11:29:10;;;;;;;11.13;3.20;;;22.40;80.30;;;;;;5085341;28;20202;-69
2024/03/25 11:31:41;;;;;;;12.33;3.33;;;22.30;80.10;;;;;;5090493;28;20197;-73
2024/03/25 11:34:11;;;;;;;7.80;2.80;;;22.30;80.00;;;;;;5080221;28;20171;-74
2024/03/25 11:36:39;;;;;;;17.83;3.93;;;22.30;80.00;;;;;;5084554;28;20175;-73
2024/03/25 11:39:09;;;;;;;13.53;3.20;;;22.20;80.30;;;;;;5087513;28;20226;-71
2024/03/25 11:41:44;;;;;;;11.87;3.20;;;22.10;80.70;;;;;;5084277;28;20206;-73
2024/03/25 11:44:12;;;;;;;12.27;4.90;;;22.10;81.30;;;;;;5083332;28;20219;-72
2024/03/25 11:46:41;;;;;;;10.37;5.73;;;22.00;81.50;;;;;;5085352;28;20205;-70
2024/03/25 11:49:17;;;;;;;13.47;7.10;;;22.00;81.70;;;;;;5103113;28;20175;-70
2024/03/25 11:51:46;;;;;;;8.80;7.73;;;21.90;82.30;;;;;;5076618;28;20676;-71
2024/03/25 11:54:15;;;;;;;10.97;9.60;;;21.90;82.50;;;;;;5076608;28;20552;-68
2024/03/25 11:56:43;;;;;;;13.00;11.70;;;21.90;82.90;;;;;;5075949;28;20241;-70
2024/03/25 11:59:12;;;;;;;13.03;11.60;;;21.80;83.20;;;;;;5083102;28;20183;-69
2024/03/25 12:01:40;;;;;;;15.37;13.93;;;21.80;83.20;;;;;;5075770;28;20199;-70
2024/03/25 12:04:19;;;;;;;15.63;14.23;;;21.80;83.50;;;;;;5083820;28;20629;-69
2024/03/25 12:06:46;;;;;;;20.90;15.93;;;21.80;84.00;;;;;;5091079;28;20183;-74
2024/03/25 12:12:00;;;;;;;21.87;19.97;;;21.70;84.30;;;;;;5077423;28;20187;-70
2024/03/25 12:14:29;;;;;;;24.20;22.43;;;21.60;84.60;;;;;;5076078;28;20179;-73
2024/03/25 12:16:57;;;;;;;27.40;25.20;;;21.60;84.50;;;;;;5074009;28;20191;-73
2024/03/25 12:19:27;;;;;;;28.23;25.43;;;21.50;84.40;;;;;;5083406;28;20213;-70
2024/03/25 12:22:20;;;;;;;27.20;24.97;;;21.50;84.50;;;;;;5080532;28;20213;-73
2024/03/25 12:24:50;;;;;;;29.23;26.33;;;21.40;84.60;;;;;;5076148;28;20187;-71
2024/03/25 12:27:17;;;;;;;38.73;35.73;;;21.40;84.50;;;;;;5082746;28;20190;-72
2024/03/25 12:29:45;;;;;;;34.70;32.47;;;21.30;84.70;;;;;;5063183;28;20202;-69
2024/03/25 12:32:12;;;;;;;38.77;36.17;;;21.30;84.70;;;;;;5081510;28;20187;-70
2024/03/25 12:34:39;;;;;;;38.27;35.90;;;21.30;84.80;;;;;;5084024;28;20179;-69
2024/03/25 12:37:07;;;;;;;41.63;38.83;;;21.30;84.70;;;;;;5085543;28;20183;-72
2024/03/25 12:39:35;;;;;;;40.27;37.77;;;21.20;84.70;;;;;;5081801;28;20239;-71
2024/03/25 12:42:06;;;;;;;46.57;43.63;;;21.20;84.70;;;;;;5086903;28;20179;-71
2024/03/25 12:44:34;;;;;;;46.57;43.43;;;21.20;84.70;;;;;;5079453;28;20668;-71
2024/03/25 12:47:01;;;;;;;48.43;44.93;;;21.10;84.80;;;;;;5085028;28;20186;-73
2024/03/25 12:49:29;;;;;;;52.10;48.47;;;21.20;85.10;;;;;;5081032;28;20203;-72
2024/03/25 12:51:56;;;;;;;49.93;46.67;;;21.10;85.10;;;;;;5078619;28;20664;-70
2024/03/25 12:54:23;;;;;;;51.03;47.47;;;21.10;85.30;;;;;;5074537;28;20186;-70
2024/03/25 12:56:51;;;;;;;54.57;50.97;;;21.10;85.20;;;;;;5076534;28;20209;-72
2024/03/25 12:59:18;;;;;;;52.20;49.00;;;21.00;85.60;;;;;;5081308;28;20729;-69